Terminal Aerodrome Forecast
Issued by NWS Upton, NY

Home | Current Version | Previous Version | Text Only | Print | Product List | Glossary On
Versions: 1 2 3 4 5 6 7 8 9 10 11 12 13 14 15 16 17 18 19 20 21 22 23 24 25
000
FTUS41 KOKX 211400 AAA
TAFISP
TAF AMD
KISP 211433Z 2115/2212 31018G27KT P6SM FEW050
     FM212200 31013G21KT P6SM FEW060
     FM220000 31009KT P6SM SKC
     FM220700 27004KT P6SM SKC=

USA.gov is the U.S. government's official web portal to all federal, state and local government web resources and services.